Time;durP1;ratioP1;P1;durP2;ratioP2;P2;SDS_P1;SDS_P2;PMS_P1;PMS_P2;Temp;Humidity;BMP_temperature;BMP_pressure;BME280_temperature;BME280_humidity;BME280_pressure;Samples;Min_cycle;Max_cycle;Signal;HPM_P1;HPM_P2
2021/08/19 00:00:49;;;;;;;;;;;15.70;99.90;;;;;;4960588;28;19921;-84
2021/08/19 00:03:14;;;;;;;;;;;15.70;99.90;;;;;;4961535;28;19968;-84
2021/08/19 00:05:40;;;;;;;;;;;15.70;99.90;;;;;;4962446;28;19921;-84
2021/08/19 00:08:05;;;;;;;;;;;15.70;99.90;;;;;;4966752;28;19921;-84
2021/08/19 00:10:31;;;;;;;;;;;15.70;99.90;;;;;;4964906;28;20021;-83
2021/08/19 00:13:00;;;;;;;;;;;15.70;99.90;;;;;;4965121;28;19914;-85
2021/08/19 00:15:25;;;;;;;;;;;15.80;99.90;;;;;;4963471;28;19921;-84
2021/08/19 00:17:51;;;;;;;;;;;15.90;99.90;;;;;;4957314;28;19993;-84
2021/08/19 00:20:16;;;;;;;;;;;15.80;99.90;;;;;;4966153;28;20392;-83
2021/08/19 00:22:42;;;;;;;;;;;15.70;99.90;;;;;;4964965;28;19918;-83
2021/08/19 00:25:08;;;;;;;;;;;15.70;99.90;;;;;;4962727;28;19929;-84
2021/08/19 00:27:33;;;;;;;;;;;15.80;99.90;;;;;;4961903;28;19917;-83
2021/08/19 00:29:59;;;;;;;;;;;15.80;99.90;;;;;;4963788;28;19917;-83
2021/08/19 00:32:24;;;;;;;;;;;15.80;99.90;;;;;;4965303;28;20021;-83
2021/08/19 00:34:50;;;;;;;;;;;15.90;99.90;;;;;;4965452;28;20356;-83
2021/08/19 00:37:16;;;;;;;;;;;15.90;99.90;;;;;;4963757;28;19929;-82
2021/08/19 00:39:42;;;;;;;;;;;15.90;99.90;;;;;;4964713;28;20490;-83
2021/08/19 00:42:08;;;;;;;;;;;15.90;99.90;;;;;;4963744;28;20005;-83
2021/08/19 00:44:33;;;;;;;;;;;15.90;99.90;;;;;;4963655;28;20298;-83
2021/08/19 00:47:00;;;;;;;;;;;15.90;99.90;;;;;;4965573;28;19930;-84
2021/08/19 00:49:25;;;;;;;;;;;15.90;99.90;;;;;;4963814;28;19920;-83
2021/08/19 00:51:54;;;;;;;;;;;15.80;99.90;;;;;;4962347;28;20009;-84
2021/08/19 00:54:25;;;;;;;;;;;15.90;99.90;;;;;;4953601;28;20769;-83
2021/08/19 00:56:52;;;;;;;;;;;15.90;99.90;;;;;;4962792;28;19961;-84
2021/08/19 00:59:23;;;;;;;;;;;15.90;99.90;;;;;;4966007;28;19914;-84
2021/08/19 01:01:49;;;;;;;;;;;15.90;99.90;;;;;;4964590;28;19997;-83
2021/08/19 01:04:15;;;;;;;;;;;15.90;99.90;;;;;;4964208;28;19992;-84
2021/08/19 01:06:40;;;;;;;;;;;15.90;99.90;;;;;;4961444;28;19914;-84
2021/08/19 01:09:07;;;;;;;;;;;15.80;99.90;;;;;;4963900;28;19921;-83
2021/08/19 01:11:34;;;;;;;;;;;15.80;99.90;;;;;;4963607;28;20498;-83
2021/08/19 01:13:59;;;;;;;;;;;15.80;99.90;;;;;;4964024;28;19910;-84
2021/08/19 01:16:25;;;;;;;;;;;15.80;99.90;;;;;;4956352;28;19929;-83
2021/08/19 01:18:50;;;;;;;;;;;15.90;99.90;;;;;;4963410;28;19914;-83
2021/08/19 01:21:16;;;;;;;;;;;15.90;99.90;;;;;;4962846;28;19914;-83
2021/08/19 01:23:43;;;;;;;;;;;15.80;99.90;;;;;;4963173;28;19926;-83
2021/08/19 01:26:09;;;;;;;;;;;15.80;99.90;;;;;;4964021;28;19918;-84
2021/08/19 01:28:36;;;;;;;;;;;15.60;99.90;;;;;;4963014;28;20411;-84
2021/08/19 01:31:02;;;;;;;;;;;15.50;99.90;;;;;;4961543;28;19914;-83
2021/08/19 01:33:28;;;;;;;;;;;15.50;99.90;;;;;;4963382;28;20384;-83
2021/08/19 01:35:54;;;;;;;;;;;15.60;99.90;;;;;;4958055;28;19925;-84
2021/08/19 01:38:27;;;;;;;;;;;15.60;99.90;;;;;;4962475;28;19914;-83
2021/08/19 01:40:52;;;;;;;;;;;15.60;99.90;;;;;;4960883;28;19914;-84
2021/08/19 01:43:19;;;;;;;;;;;15.60;99.90;;;;;;4956717;28;20395;-84
2021/08/19 01:45:45;;;;;;;;;;;15.60;99.90;;;;;;4959035;28;20442;-84
2021/08/19 01:48:12;;;;;;;;;;;15.60;99.90;;;;;;4958977;28;19914;-83
2021/08/19 01:50:38;;;;;;;;;;;15.60;99.90;;;;;;4958684;28;19918;-83
2021/08/19 01:53:03;;;;;;;;;;;15.60;99.90;;;;;;4962433;28;19914;-82
2021/08/19 01:55:29;;;;;;;;;;;15.60;99.90;;;;;;4961898;28;20753;-83
2021/08/19 01:57:54;;;;;;;;;;;15.60;99.90;;;;;;4960906;28;20736;-83
2021/08/19 02:00:20;;;;;;;;;;;15.50;99.90;;;;;;4960688;28;19968;-84
2021/08/19 02:02:45;;;;;;;;;;;15.50;99.90;;;;;;4962797;28;19968;-83
2021/08/19 02:05:11;;;;;;;;;;;15.40;99.90;;;;;;4963239;28;20036;-83
2021/08/19 02:07:37;;;;;;;;;;;15.30;99.90;;;;;;4962069;28;19972;-82
2021/08/19 02:10:03;;;;;;;;;;;15.40;99.90;;;;;;4963389;28;19918;-84
2021/08/19 02:12:29;;;;;;;;;;;15.40;99.90;;;;;;4962555;28;19925;-83
2021/08/19 02:14:54;;;;;;;;;;;15.50;99.90;;;;;;4962965;28;19921;-84
2021/08/19 02:17:20;;;;;;;;;;;15.60;99.90;;;;;;4960928;28;19989;-84
2021/08/19 02:19:45;;;;;;;;;;;15.60;99.90;;;;;;4963095;28;19918;-84
2021/08/19 02:22:11;;;;;;;;;;;15.40;99.90;;;;;;4961502;28;19936;-84
2021/08/19 02:24:36;;;;;;;;;;;15.40;99.90;;;;;;4963365;28;20308;-84
2021/08/19 02:27:02;;;;;;;;;;;15.30;99.90;;;;;;4966632;28;19914;-84
2021/08/19 02:29:27;;;;;;;;;;;15.20;99.90;;;;;;4966787;28;20404;-84
2021/08/19 02:31:53;;;;;;;;;;;15.20;99.90;;;;;;4965178;28;19960;-83
2021/08/19 02:34:18;;;;;;;;;;;15.20;99.90;;;;;;4964240;28;19917;-83
2021/08/19 02:36:44;;;;;;;;;;;15.10;99.90;;;;;;4964920;28;19929;-83
2021/08/19 02:39:09;;;;;;;;;;;15.20;99.90;;;;;;4967155;28;20392;-83
2021/08/19 02:41:35;;;;;;;;;;;15.20;99.90;;;;;;4964932;28;19930;-84
2021/08/19 02:44:00;;;;;;;;;;;15.20;99.90;;;;;;4956910;28;19918;-84
2021/08/19 02:46:28;;;;;;;;;;;15.30;99.90;;;;;;4965777;28;19917;-83
2021/08/19 02:48:53;;;;;;;;;;;15.40;99.90;;;;;;4966762;28;19910;-83
2021/08/19 02:51:19;;;;;;;;;;;15.20;99.90;;;;;;4966525;28;20304;-83
2021/08/19 02:53:44;;;;;;;;;;;15.10;99.90;;;;;;4963714;28;21488;-83
2021/08/19 02:56:10;;;;;;;;;;;15.20;99.90;;;;;;4966816;28;19922;-84
2021/08/19 02:58:35;;;;;;;;;;;15.20;99.90;;;;;;4963719;28;19914;-83
2021/08/19 03:01:01;;;;;;;;;;;15.20;99.90;;;;;;4966443;28;19961;-84
2021/08/19 03:03:26;;;;;;;;;;;15.00;99.90;;;;;;4964503;28;19918;-84
2021/08/19 03:05:52;;;;;;;;;;;15.10;99.90;;;;;;4965495;28;21751;-84
2021/08/19 03:08:17;;;;;;;;;;;15.10;99.90;;;;;;4961506;28;19914;-84
2021/08/19 03:10:43;;;;;;;;;;;15.20;99.90;;;;;;4964282;28;19925;-83
2021/08/19 03:13:08;;;;;;;;;;;15.20;99.90;;;;;;4965081;28;19910;-83
2021/08/19 03:15:34;;;;;;;;;;;15.20;99.90;;;;;;4960901;28;19926;-84
2021/08/19 03:18:00;;;;;;;;;;;15.20;99.90;;;;;;4965187;28;20021;-84
2021/08/19 03:20:25;;;;;;;;;;;15.20;99.90;;;;;;4964925;28;19914;-85
2021/08/19 03:22:51;;;;;;;;;;;15.20;99.90;;;;;;4964287;28;20343;-85
2021/08/19 03:25:17;;;;;;;;;;;15.30;99.90;;;;;;4965824;28;20397;-85
2021/08/19 03:27:43;;;;;;;;;;;15.30;99.90;;;;;;4965631;28;19920;-84
2021/08/19 03:30:08;;;;;;;;;;;15.30;99.90;;;;;;4965521;28;19910;-83
2021/08/19 03:32:35;;;;;;;;;;;15.30;99.90;;;;;;4963985;28;19910;-83
2021/08/19 03:35:01;;;;;;;;;;;15.40;99.90;;;;;;4967307;28;19920;-84
2021/08/19 03:37:29;;;;;;;;;;;15.40;99.90;;;;;;4961295;28;19922;-84
2021/08/19 03:39:54;;;;;;;;;;;15.50;99.90;;;;;;4961683;28;20401;-84
2021/08/19 03:42:20;;;;;;;;;;;15.50;99.90;;;;;;4964953;28;19941;-85
2021/08/19 03:44:45;;;;;;;;;;;15.40;99.90;;;;;;4966524;28;19914;-84
2021/08/19 03:47:11;;;;;;;;;;;15.40;99.90;;;;;;4966696;28;20534;-84
2021/08/19 03:49:37;;;;;;;;;;;15.30;99.90;;;;;;4959881;28;20654;-84
2021/08/19 03:52:03;;;;;;;;;;;15.30;99.90;;;;;;4966096;28;19922;-84
2021/08/19 03:54:29;;;;;;;;;;;15.40;99.90;;;;;;4964010;28;20369;-83
2021/08/19 03:56:54;;;;;;;;;;;15.40;99.90;;;;;;4964948;28;19922;-83
2021/08/19 03:59:21;;;;;;;;;;;15.40;99.90;;;;;;4965924;28;19914;-84
2021/08/19 04:01:47;;;;;;;;;;;15.50;99.90;;;;;;4964693;28;19914;-83
2021/08/19 04:04:12;;;;;;;;;;;15.50;99.90;;;;;;4964826;28;19914;-83
2021/08/19 04:06:39;;;;;;;;;;;15.50;99.90;;;;;;4964345;28;19936;-83
2021/08/19 04:09:05;;;;;;;;;;;15.60;99.90;;;;;;4964180;28;19918;-83
2021/08/19 04:11:30;;;;;;;;;;;15.50;99.90;;;;;;4964054;28;19920;-83
2021/08/19 04:13:56;;;;;;;;;;;15.60;99.90;;;;;;4965508;28;20309;-83
2021/08/19 04:16:21;;;;;;;;;;;15.60;99.90;;;;;;4964012;28;19929;-84
2021/08/19 04:18:47;;;;;;;;;;;15.50;99.90;;;;;;4962297;28;20687;-84
2021/08/19 04:21:13;;;;;;;;;;;15.60;99.90;;;;;;4964960;28;19933;-83
2021/08/19 04:23:42;;;;;;;;;;;15.50;99.90;;;;;;4963878;28;19922;-83
2021/08/19 04:26:08;;;;;;;;;;;15.50;99.90;;;;;;4963877;28;19983;-85
2021/08/19 04:28:34;;;;;;;;;;;15.60;99.90;;;;;;4963084;28;20383;-85
2021/08/19 04:30:59;;;;;;;;;;;15.50;99.90;;;;;;4958057;28;20379;-85
2021/08/19 04:33:28;;;;;;;;;;;15.30;99.90;;;;;;4962059;28;20005;-86
2021/08/19 04:35:54;;;;;;;;;;;15.20;99.90;;;;;;4963146;28;20311;-84
2021/08/19 04:38:20;;;;;;;;;;;15.20;99.90;;;;;;4965019;28;19921;-86
2021/08/19 04:40:45;;;;;;;;;;;15.20;99.90;;;;;;4965510;28;20012;-86
2021/08/19 04:43:11;;;;;;;;;;;15.30;99.90;;;;;;4961025;28;20389;-85
2021/08/19 04:45:36;;;;;;;;;;;15.30;99.90;;;;;;4963745;28;19914;-85
2021/08/19 04:48:02;;;;;;;;;;;15.20;99.90;;;;;;4963386;28;19921;-84
2021/08/19 04:50:27;;;;;;;;;;;15.20;99.90;;;;;;4964042;28;19920;-84
2021/08/19 04:52:53;;;;;;;;;;;15.20;99.90;;;;;;4957228;28;20385;-83
2021/08/19 04:55:18;;;;;;;;;;;15.20;99.90;;;;;;4962841;28;20377;-82
2021/08/19 04:57:44;;;;;;;;;;;15.20;99.90;;;;;;4964125;28;19914;-84
2021/08/19 05:00:10;;;;;;;;;;;15.10;99.90;;;;;;4964052;28;19914;-84
2021/08/19 05:02:35;;;;;;;;;;;15.10;99.90;;;;;;4963631;28;19921;-83
2021/08/19 05:05:01;;;;;;;;;;;14.90;99.90;;;;;;4965418;28;20471;-89
2021/08/19 05:07:27;;;;;;;;;;;14.70;99.90;;;;;;4959168;28;20329;-86
2021/08/19 05:09:53;;;;;;;;;;;14.70;99.90;;;;;;4959578;28;20009;-86
2021/08/19 05:12:18;;;;;;;;;;;14.60;99.90;;;;;;4963808;28;19969;-86
2021/08/19 05:14:44;;;;;;;;;;;14.70;99.90;;;;;;4962901;28;19968;-87
2021/08/19 05:17:09;;;;;;;;;;;14.60;99.90;;;;;;4964974;28;20508;-86
2021/08/19 05:19:35;;;;;;;;;;;14.60;99.90;;;;;;4962513;28;19914;-87
2021/08/19 05:22:00;;;;;;;;;;;14.70;99.90;;;;;;4962144;28;20427;-87
2021/08/19 05:24:26;;;;;;;;;;;14.70;99.90;;;;;;4963863;28;20401;-87
2021/08/19 05:26:51;;;;;;;;;;;14.70;99.90;;;;;;4962636;28;20453;-86
2021/08/19 05:29:17;;;;;;;;;;;14.80;99.90;;;;;;4961900;28;20499;-86
2021/08/19 05:31:42;;;;;;;;;;;14.80;99.90;;;;;;4963406;28;19918;-86
2021/08/19 05:34:08;;;;;;;;;;;14.70;99.90;;;;;;4964256;28;19957;-86
2021/08/19 05:36:34;;;;;;;;;;;14.80;99.90;;;;;;4962491;28;19957;-87
2021/08/19 05:39:00;;;;;;;;;;;14.80;99.90;;;;;;4962020;28;19926;-86
2021/08/19 05:41:25;;;;;;;;;;;15.00;99.90;;;;;;4962636;28;19918;-85
2021/08/19 05:43:51;;;;;;;;;;;15.00;99.90;;;;;;4963825;28;19925;-86
2021/08/19 05:46:16;;;;;;;;;;;14.90;99.90;;;;;;4963844;28;19921;-86
2021/08/19 05:48:42;;;;;;;;;;;15.00;99.90;;;;;;4957320;28;19918;-87
2021/08/19 05:51:10;;;;;;;;;;;15.20;99.90;;;;;;4963397;28;19925;-87
2021/08/19 05:53:35;;;;;;;;;;;15.40;99.90;;;;;;4954119;28;19921;-85
2021/08/19 05:56:01;;;;;;;;;;;15.40;99.90;;;;;;4965280;28;19921;-86
2021/08/19 05:58:26;;;;;;;;;;;15.50;99.90;;;;;;4957782;28;19910;-88
2021/08/19 06:00:52;;;;;;;;;;;15.70;99.90;;;;;;4964247;28;19914;-86
2021/08/19 06:03:19;;;;;;;;;;;15.60;99.90;;;;;;4963445;28;20589;-86
2021/08/19 06:05:45;;;;;;;;;;;15.30;99.90;;;;;;4960439;28;20008;-88
2021/08/19 06:08:11;;;;;;;;;;;15.20;99.90;;;;;;4965460;28;20623;-87
2021/08/19 06:10:36;;;;;;;;;;;15.40;99.90;;;;;;4963631;28;19914;-88
2021/08/19 06:13:02;;;;;;;;;;;15.90;99.90;;;;;;4959404;28;19945;-87
2021/08/19 06:15:28;;;;;;;;;;;16.20;99.90;;;;;;4963399;28;20420;-87
2021/08/19 06:17:53;;;;;;;;;;;16.20;99.90;;;;;;4963849;28;19965;-85
2021/08/19 06:20:19;;;;;;;;;;;16.20;99.90;;;;;;4954605;28;19914;-86
2021/08/19 06:22:44;;;;;;;;;;;16.10;99.90;;;;;;4962320;28;20375;-84
2021/08/19 06:25:10;;;;;;;;;;;16.00;99.90;;;;;;4958739;28;20390;-85
2021/08/19 06:27:36;;;;;;;;;;;16.00;99.90;;;;;;4961531;28;19914;-85
2021/08/19 06:30:02;;;;;;;;;;;16.00;99.90;;;;;;4961701;28;20739;-85
2021/08/19 06:32:27;;;;;;;;;;;16.10;99.90;;;;;;4964299;28;19952;-85
2021/08/19 06:34:53;;;;;;;;;;;16.10;99.90;;;;;;4961417;28;19958;-84
2021/08/19 06:37:18;;;;;;;;;;;16.20;99.90;;;;;;4962774;28;19929;-83
2021/08/19 06:39:44;;;;;;;;;;;16.20;99.90;;;;;;4963128;28;20010;-86
2021/08/19 06:42:09;;;;;;;;;;;16.20;99.90;;;;;;4962800;28;19914;-85
2021/08/19 06:44:35;;;;;;;;;;;16.30;99.90;;;;;;4961733;28;19910;-84
2021/08/19 06:47:00;;;;;;;;;;;16.30;99.90;;;;;;4962416;28;19914;-85
2021/08/19 06:49:26;;;;;;;;;;;16.40;99.90;;;;;;4960682;28;20373;-84
2021/08/19 06:51:51;;;;;;;;;;;16.30;99.90;;;;;;4958561;28;19972;-84
2021/08/19 06:54:17;;;;;;;;;;;16.40;99.90;;;;;;4960824;28;19926;-84
2021/08/19 06:56:42;;;;;;;;;;;16.40;99.90;;;;;;4948859;28;20316;-82
2021/08/19 06:59:08;;;;;;;;;;;16.70;99.90;;;;;;4960757;28;20345;-84
2021/08/19 07:01:33;;;;;;;;;;;16.70;99.90;;;;;;4949190;28;19917;-83
2021/08/19 07:03:59;;;;;;;;;;;16.80;99.90;;;;;;4945916;28;20425;-83
2021/08/19 07:06:25;;;;;;;;;;;16.90;99.90;;;;;;4944229;28;20770;-83
2021/08/19 07:08:50;;;;;;;;;;;16.90;99.90;;;;;;4948421;28;20305;-83
2021/08/19 07:11:16;;;;;;;;;;;17.00;99.90;;;;;;4949622;28;19966;-84
2021/08/19 07:13:41;;;;;;;;;;;16.90;99.90;;;;;;4949436;28;19939;-84
2021/08/19 07:16:07;;;;;;;;;;;16.80;99.90;;;;;;4949047;28;19937;-84
2021/08/19 07:18:32;;;;;;;;;;;16.80;99.90;;;;;;4949825;28;19987;-84
2021/08/19 07:20:58;;;;;;;;;;;16.80;99.90;;;;;;4950806;28;20628;-85
2021/08/19 07:23:24;;;;;;;;;;;16.70;99.90;;;;;;4948658;28;20533;-84
2021/08/19 07:25:49;;;;;;;;;;;16.60;99.90;;;;;;4950105;28;19922;-83
2021/08/19 07:28:15;;;;;;;;;;;16.80;99.90;;;;;;4948882;28;20005;-84
2021/08/19 07:30:40;;;;;;;;;;;17.00;99.90;;;;;;4948055;28;19953;-83
2021/08/19 07:33:06;;;;;;;;;;;17.00;99.90;;;;;;4948137;28;19910;-83
2021/08/19 07:35:32;;;;;;;;;;;17.10;99.90;;;;;;4949599;28;19922;-84
2021/08/19 07:37:57;;;;;;;;;;;17.20;99.90;;;;;;4949711;28;19914;-83
2021/08/19 07:40:24;;;;;;;;;;;17.10;99.90;;;;;;4949586;28;20408;-84
2021/08/19 07:42:51;;;;;;;;;;;17.20;99.90;;;;;;4951805;28;20076;-83
2021/08/19 07:45:17;;;;;;;;;;;17.20;99.90;;;;;;4949325;28;20388;-83
2021/08/19 07:47:43;;;;;;;;;;;17.30;99.90;;;;;;4948316;28;19929;-84
2021/08/19 07:50:09;;;;;;;;;;;17.20;99.90;;;;;;4949834;28;19910;-83
2021/08/19 07:52:35;;;;;;;;;;;17.40;99.90;;;;;;4965155;28;19941;-83
2021/08/19 07:55:01;;;;;;;;;;;17.50;99.90;;;;;;4952147;28;20452;-83
2021/08/19 07:57:26;;;;;;;;;;;17.50;99.90;;;;;;4950768;28;19929;-84
2021/08/19 07:59:52;;;;;;;;;;;17.60;99.90;;;;;;4947447;28;19949;-83
2021/08/19 08:02:18;;;;;;;;;;;17.80;99.90;;;;;;4950749;28;20013;-84
2021/08/19 08:04:44;;;;;;;;;;;18.00;99.90;;;;;;4950660;28;19914;-84
2021/08/19 08:07:09;;;;;;;;;;;17.80;99.90;;;;;;4950340;28;20682;-84
2021/08/19 08:09:35;;;;;;;;;;;17.80;99.90;;;;;;4947865;28;20727;-84
2021/08/19 08:12:00;;;;;;;;;;;17.70;99.90;;;;;;4959869;28;19989;-84
2021/08/19 08:14:26;;;;;;;;;;;17.50;99.90;;;;;;4951686;28;20034;-83
2021/08/19 08:16:51;;;;;;;;;;;17.80;99.90;;;;;;4950256;28;19922;-83
2021/08/19 08:19:17;;;;;;;;;;;18.00;99.90;;;;;;4949175;28;19914;-84
2021/08/19 08:21:43;;;;;;;;;;;18.20;99.90;;;;;;4950162;28;19996;-84
2021/08/19 08:24:10;;;;;;;;;;;17.90;99.90;;;;;;4951280;28;20004;-84
2021/08/19 08:26:36;;;;;;;;;;;17.80;99.90;;;;;;4965085;28;19917;-83
2021/08/19 08:29:02;;;;;;;;;;;17.90;99.90;;;;;;4961422;28;19910;-83
2021/08/19 08:31:30;;;;;;;;;;;18.00;99.90;;;;;;4959095;28;19918;-83
2021/08/19 08:33:56;;;;;;;;;;;18.30;99.90;;;;;;4956698;28;19915;-83
2021/08/19 08:36:22;;;;;;;;;;;18.00;99.90;;;;;;4949295;28;19922;-83
2021/08/19 08:38:48;;;;;;;;;;;18.20;99.90;;;;;;4964687;28;19925;-84
2021/08/19 08:41:15;;;;;;;;;;;18.50;99.90;;;;;;4965682;28;19913;-84
2021/08/19 08:43:41;;;;;;;;;;;18.50;99.90;;;;;;4964623;28;19914;-85
2021/08/19 08:46:07;;;;;;;;;;;18.50;99.90;;;;;;4964272;28;19929;-83
2021/08/19 08:48:33;;;;;;;;;;;18.60;99.90;;;;;;4963274;28;19914;-83
2021/08/19 08:50:59;;;;;;;;;;;18.60;99.90;;;;;;4962392;28;19910;-83
2021/08/19 08:53:25;;;;;;;;;;;18.60;99.90;;;;;;4966022;28;19910;-83
2021/08/19 08:55:51;;;;;;;;;;;19.00;99.90;;;;;;4965830;28;19941;-83
2021/08/19 08:58:16;;;;;;;;;;;19.30;99.90;;;;;;4964633;28;20375;-84
2021/08/19 09:00:43;;;;;;;;;;;19.40;99.90;;;;;;4964230;28;20412;-83
2021/08/19 09:03:09;;;;;;;;;;;19.40;99.90;;;;;;4963941;28;19958;-85
2021/08/19 09:05:41;;;;;;;;;;;19.20;99.90;;;;;;4962863;28;19945;-85
2021/08/19 09:08:12;;;;;;;;;;;19.60;99.90;;;;;;4966529;28;19910;-83
2021/08/19 09:10:38;;;;;;;;;;;19.70;99.90;;;;;;4964361;28;20690;-83
2021/08/19 09:13:14;;;;;;;;;;;19.60;99.90;;;;;;4959213;28;20210;-83
2021/08/19 09:15:39;;;;;;;;;;;19.80;99.90;;;;;;4954973;28;20645;-83
2021/08/19 09:18:05;;;;;;;;;;;19.70;99.90;;;;;;4961619;28;19922;-83
2021/08/19 09:20:34;;;;;;;;;;;19.70;99.90;;;;;;4964463;28;19910;-84
2021/08/19 09:23:06;;;;;;;;;;;19.90;99.90;;;;;;4951370;28;20004;-84
2021/08/19 09:25:31;;;;;;;;;;;19.80;99.90;;;;;;4962060;28;19917;-84
2021/08/19 09:28:12;;;;;;;;;;;19.60;99.90;;;;;;4963397;28;19913;-84
2021/08/19 09:30:39;;;;;;;;;;;19.60;99.90;;;;;;4963433;28;19914;-84
2021/08/19 09:33:05;;;;;;;;;;;19.90;99.90;;;;;;4953586;28;20381;-83
2021/08/19 09:35:31;;;;;;;;;;;19.80;99.90;;;;;;4946343;28;19914;-82
2021/08/19 09:37:57;;;;;;;;;;;19.80;99.90;;;;;;4952895;28;19925;-84
2021/08/19 09:40:23;;;;;;;;;;;19.80;99.90;;;;;;4958403;28;20028;-84
2021/08/19 09:42:48;;;;;;;;;;;19.70;99.90;;;;;;4955526;28;20377;-83
2021/08/19 09:45:21;;;;;;;;;;;19.80;99.90;;;;;;4947914;28;19918;-83
2021/08/19 09:47:47;;;;;;;;;;;20.00;99.90;;;;;;4946392;28;19914;-84
2021/08/19 09:50:18;;;;;;;;;;;19.90;99.90;;;;;;4966118;28;19951;-84
2021/08/19 09:52:45;;;;;;;;;;;19.90;99.90;;;;;;4964072;28;19925;-84
2021/08/19 09:55:24;;;;;;;;;;;19.70;99.90;;;;;;4963885;28;20004;-84
2021/08/19 09:57:50;;;;;;;;;;;19.80;99.90;;;;;;4962730;28;19922;-85
2021/08/19 10:00:26;;;;;;;;;;;20.00;99.90;;;;;;4960598;28;19914;-84
2021/08/19 10:02:52;;;;;;;;;;;20.10;99.90;;;;;;4949043;28;19970;-84
2021/08/19 10:05:18;;;;;;;;;;;20.20;99.90;;;;;;4962904;28;19910;-84
2021/08/19 10:07:43;;;;;;;;;;;20.10;99.90;;;;;;4961560;28;19918;-84
2021/08/19 10:10:09;;;;;;;;;;;20.10;99.90;;;;;;4963920;28;19906;-83
2021/08/19 10:12:39;;;;;;;;;;;19.80;99.90;;;;;;4961806;28;20009;-84
2021/08/19 10:15:05;;;;;;;;;;;19.90;99.90;;;;;;4961907;28;19910;-84
2021/08/19 10:17:30;;;;;;;;;;;20.00;99.90;;;;;;4961935;28;19928;-83
2021/08/19 10:19:56;;;;;;;;;;;20.00;99.90;;;;;;4963278;28;20355;-84
2021/08/19 10:22:22;;;;;;;;;;;19.80;99.90;;;;;;4961429;28;19910;-83
2021/08/19 10:24:52;;;;;;;;;;;19.70;99.90;;;;;;4948541;28;20397;-84
2021/08/19 10:27:21;;;;;;;;;;;19.90;99.90;;;;;;4945770;28;19914;-85
2021/08/19 10:29:49;;;;;;;;;;;20.10;99.90;;;;;;4950384;28;20760;-83
2021/08/19 10:32:25;;;;;;;;;;;20.00;99.90;;;;;;4961786;28;20360;-84
2021/08/19 10:35:07;;;;;;;;;;;20.00;99.90;;;;;;4950024;28;19946;-84
2021/08/19 10:37:48;;;;;;;;;;;20.20;99.90;;;;;;4956646;28;19932;-84
2021/08/19 10:40:20;;;;;;;;;;;20.30;99.90;;;;;;4962692;28;19918;-85
2021/08/19 10:42:46;;;;;;;;;;;20.00;99.90;;;;;;4963486;28;19921;-84
2021/08/19 10:45:41;;;;;;;;;;;20.10;99.90;;;;;;4966138;28;20827;-83
2021/08/19 10:48:07;;;;;;;;;;;20.20;99.90;;;;;;4941384;28;19921;-84
2021/08/19 10:50:35;;;;;;;;;;;20.30;99.90;;;;;;4967323;28;19914;-84
2021/08/19 10:53:09;;;;;;;;;;;20.30;99.90;;;;;;4968375;28;19917;-84
2021/08/19 10:55:55;;;;;;;;;;;20.40;99.90;;;;;;4966124;28;20418;-85
2021/08/19 10:58:21;;;;;;;;;;;20.10;99.90;;;;;;4966358;28;20055;-84
2021/08/19 11:00:46;;;;;;;;;;;20.00;99.90;;;;;;4961641;28;20710;-83
2021/08/19 11:03:31;;;;;;;;;;;20.10;99.90;;;;;;4956348;28;19917;-83
2021/08/19 11:05:56;;;;;;;;;;;20.30;99.90;;;;;;4950321;28;19922;-83
2021/08/19 11:08:35;;;;;;;;;;;20.40;99.90;;;;;;4949739;28;19910;-84
2021/08/19 11:11:01;;;;;;;;;;;20.50;99.90;;;;;;4959591;28;19913;-83
2021/08/19 11:13:27;;;;;;;;;;;20.70;99.90;;;;;;4963464;28;19914;-83
2021/08/19 11:15:53;;;;;;;;;;;20.90;99.90;;;;;;4962422;28;19917;-83
2021/08/19 11:18:26;;;;;;;;;;;20.70;99.90;;;;;;4961955;28;19925;-83
2021/08/19 11:20:51;;;;;;;;;;;20.80;99.90;;;;;;4962015;28;19914;-83
2021/08/19 11:23:17;;;;;;;;;;;21.10;99.90;;;;;;4964225;28;20400;-83
2021/08/19 11:25:44;;;;;;;;;;;21.30;99.90;;;;;;4961340;28;19951;-83
2021/08/19 11:28:17;;;;;;;;;;;21.30;99.90;;;;;;4962302;28;19914;-83
2021/08/19 11:30:46;;;;;;;;;;;21.40;99.90;;;;;;4953661;28;20388;-83
2021/08/19 11:33:13;;;;;;;;;;;21.60;99.90;;;;;;4950910;28;19914;-83
2021/08/19 11:35:40;;;;;;;;;;;21.80;99.90;;;;;;4965409;28;19914;-83
2021/08/19 11:38:11;;;;;;;;;;;21.60;99.90;;;;;;4967947;28;19910;-82
2021/08/19 11:40:38;;;;;;;;;;;21.80;99.90;;;;;;4964301;28;20367;-84
2021/08/19 11:43:22;;;;;;;;;;;22.00;99.90;;;;;;4965823;28;19921;-84
2021/08/19 11:45:48;;;;;;;;;;;22.10;99.90;;;;;;4965770;28;19914;-84
2021/08/19 11:48:17;;;;;;;;;;;21.70;99.90;;;;;;4965824;28;19930;-84
2021/08/19 11:50:42;;;;;;;;;;;21.90;99.90;;;;;;4965469;28;19914;-84
2021/08/19 11:53:08;;;;;;;;;;;22.10;99.90;;;;;;4966654;28;20282;-84
2021/08/19 11:55:36;;;;;;;;;;;22.40;99.90;;;;;;4964375;28;19914;-83
2021/08/19 11:58:14;;;;;;;;;;;22.40;99.90;;;;;;4966490;28;19918;-83
2021/08/19 12:00:58;;;;;;;;;;;22.80;99.90;;;;;;4965836;28;19968;-83
2021/08/19 12:03:24;;;;;;;;;;;22.80;99.90;;;;;;4965361;28;19918;-83
2021/08/19 12:06:08;;;;;;;;;;;23.00;99.90;;;;;;4952136;28;19917;-83
2021/08/19 12:08:35;;;;;;;;;;;22.10;99.90;;;;;;4949618;28;19918;-83
2021/08/19 12:11:02;;;;;;;;;;;22.60;99.90;;;;;;4967758;28;19960;-84
2021/08/19 12:13:28;;;;;;;;;;;22.70;99.90;;;;;;4960667;28;19978;-84
2021/08/19 12:15:54;;;;;;;;;;;22.90;99.90;;;;;;4954023;28;19928;-84
2021/08/19 12:18:21;;;;;;;;;;;22.70;99.90;;;;;;4965233;28;19918;-85
2021/08/19 12:20:47;;;;;;;;;;;23.10;99.90;;;;;;4949776;28;19921;-83
2021/08/19 12:23:17;;;;;;;;;;;23.40;99.90;;;;;;4966800;28;19920;-84
2021/08/19 12:25:43;;;;;;;;;;;23.30;99.90;;;;;;4965383;28;19922;-84
2021/08/19 12:28:11;;;;;;;;;;;23.10;99.90;;;;;;4964887;28;19914;-84
2021/08/19 12:30:56;;;;;;;;;;;23.20;99.90;;;;;;4964497;28;19914;-84
2021/08/19 12:33:31;;;;;;;;;;;22.90;99.90;;;;;;4963995;28;19914;-85
2021/08/19 12:36:12;;;;;;;;;;;23.00;99.90;;;;;;4963879;28;19922;-84
2021/08/19 12:38:38;;;;;;;;;;;23.10;99.90;;;;;;4963576;28;19972;-84
2021/08/19 12:41:14;;;;;;;;;;;22.90;99.90;;;;;;4960008;28;19915;-84
2021/08/19 12:43:40;;;;;;;;;;;22.90;99.90;;;;;;4963520;28;19985;-85
2021/08/19 12:46:07;;;;;;;;;;;22.90;99.90;;;;;;4963986;28;19914;-84
2021/08/19 12:48:34;;;;;;;;;;;22.90;99.90;;;;;;4963909;28;19917;-84
2021/08/19 12:51:19;;;;;;;;;;;23.00;99.90;;;;;;4963497;28;19914;-84
2021/08/19 12:54:20;;;;;;;;;;;23.20;99.90;;;;;;4964034;28;19913;-83
2021/08/19 12:56:57;;;;;;;;;;;23.70;99.90;;;;;;4922449;29;19934;-84
2021/08/19 12:59:22;;;;;;;;;;;23.40;99.90;;;;;;4920110;29;20062;-85
2021/08/19 13:01:48;;;;;;;;;;;23.40;99.90;;;;;;4923390;29;19914;-84
2021/08/19 13:04:13;;;;;;;;;;;23.50;99.90;;;;;;4913538;29;19915;-84
2021/08/19 13:06:39;;;;;;;;;;;23.90;99.90;;;;;;4917956;29;19915;-85
2021/08/19 13:09:04;;;;;;;;;;;23.90;99.90;;;;;;4921431;29;19926;-84
2021/08/19 13:11:30;;;;;;;;;;;24.10;99.90;;;;;;4918592;29;19915;-84
2021/08/19 13:13:56;;;;;;;;;;;23.80;99.90;;;;;;4905848;29;19915;-85
2021/08/19 13:16:21;;;;;;;;;;;24.00;99.90;;;;;;4909769;29;19922;-84
2021/08/19 13:18:47;;;;;;;;;;;23.90;99.90;;;;;;4894473;29;19923;-83
2021/08/19 13:21:12;;;;;;;;;;;24.10;99.90;;;;;;4917090;29;19918;-84
2021/08/19 13:23:38;;;;;;;;;;;24.20;99.50;;;;;;4906684;29;19918;-84
2021/08/19 13:26:04;;;;;;;;;;;24.80;99.30;;;;;;4907556;29;19953;-84
2021/08/19 13:28:29;;;;;;;;;;;24.60;99.90;;;;;;4907485;29;20075;-84
2021/08/19 13:30:55;;;;;;;;;;;24.70;99.90;;;;;;4931468;28;20377;-84
2021/08/19 13:33:21;;;;;;;;;;;23.80;99.50;;;;;;4948523;28;19925;-84
2021/08/19 13:35:47;;;;;;;;;;;22.90;99.90;;;;;;4953484;28;19914;-84
2021/08/19 13:38:12;;;;;;;;;;;22.70;99.90;;;;;;4951821;28;19921;-84
2021/08/19 13:40:38;;;;;;;;;;;22.10;99.90;;;;;;4949824;28;19914;-84
2021/08/19 13:43:03;;;;;;;;;;;20.80;99.90;;;;;;4948498;28;20000;-84
2021/08/19 13:45:30;;;;;;;;;;;20.00;99.90;;;;;;4948379;28;19915;-85
2021/08/19 13:47:56;;;;;;;;;;;20.50;99.90;;;;;;4946804;28;19956;-83
2021/08/19 13:50:21;;;;;;;;;;;21.10;99.90;;;;;;4945956;28;19910;-84
2021/08/19 13:52:47;;;;;;;;;;;21.80;99.90;;;;;;4963802;28;20434;-84
2021/08/19 13:55:13;;;;;;;;;;;22.10;99.90;;;;;;4946361;28;19921;-84
2021/08/19 13:57:38;;;;;;;;;;;22.30;99.90;;;;;;4950981;28;19928;-84
2021/08/19 14:00:04;;;;;;;;;;;22.10;99.90;;;;;;4947646;28;20348;-83
2021/08/19 14:02:30;;;;;;;;;;;21.30;99.90;;;;;;4946106;28;19918;-84
2021/08/19 14:04:55;;;;;;;;;;;20.90;99.90;;;;;;4948565;28;20316;-84
2021/08/19 14:07:21;;;;;;;;;;;21.00;99.90;;;;;;4950874;28;19999;-84
2021/08/19 14:09:46;;;;;;;;;;;21.00;99.90;;;;;;4945838;28;19914;-84
2021/08/19 14:12:12;;;;;;;;;;;21.00;99.90;;;;;;4951948;28;19914;-83
2021/08/19 14:14:37;;;;;;;;;;;20.60;99.90;;;;;;4949369;28;19957;-84